sensor_id;sensor_type;location;lat;lon;timestamp;pressure;altitude;pressure_sealevel;temperature;humidity
56681;BME280;42558;52.388;13.390;2022-09-29T00:01:04;99551.20;;;6.43;100.00
56681;BME280;42558;52.388;13.390;2022-09-29T00:03:32;99554.48;;;6.41;100.00
56681;BME280;42558;52.388;13.390;2022-09-29T00:05:59;99551.33;;;6.39;100.00
56681;BME280;42558;52.388;13.390;2022-09-29T00:08:29;99552.54;;;6.37;100.00
56681;BME280;42558;52.388;13.390;2022-09-29T00:10:56;99550.95;;;6.36;100.00
56681;BME280;42558;52.388;13.390;2022-09-29T00:13:23;99552.90;;;6.37;100.00
56681;BME280;42558;52.388;13.390;2022-09-29T00:15:59;99552.85;;;6.34;100.00
56681;BME280;42558;52.388;13.390;2022-09-29T00:18:29;99549.67;;;6.32;100.00
56681;BME280;42558;52.388;13.390;2022-09-29T00:21:09;99548.82;;;6.32;100.00
56681;BME280;42558;52.388;13.390;2022-09-29T00:23:36;99553.06;;;6.37;100.00
56681;BME280;42558;52.388;13.390;2022-09-29T00:26:14;99551.41;;;6.30;100.00
56681;BME280;42558;52.388;13.390;2022-09-29T00:28:48;99552.77;;;6.26;100.00
56681;BME280;42558;52.388;13.390;2022-09-29T00:31:19;99554.06;;;6.16;100.00
56681;BME280;42558;52.388;13.390;2022-09-29T00:33:47;99556.28;;;6.14;100.00
56681;BME280;42558;52.388;13.390;2022-09-29T00:36:17;99558.98;;;6.06;100.00
56681;BME280;42558;52.388;13.390;2022-09-29T00:38:46;99557.71;;;6.02;100.00
56681;BME280;42558;52.388;13.390;2022-09-29T00:41:21;99554.09;;;6.06;100.00
56681;BME280;42558;52.388;13.390;2022-09-29T00:43:59;99550.73;;;6.02;100.00
56681;BME280;42558;52.388;13.390;2022-09-29T00:47:13;99552.95;;;5.98;100.00
56681;BME280;42558;52.388;13.390;2022-09-29T00:49:47;99555.06;;;6.00;100.00
56681;BME280;42558;52.388;13.390;2022-09-29T00:52:35;99548.67;;;6.04;100.00
56681;BME280;42558;52.388;13.390;2022-09-29T00:55:08;99553.11;;;6.10;100.00
56681;BME280;42558;52.388;13.390;2022-09-29T00:57:48;99551.30;;;6.06;100.00
56681;BME280;42558;52.388;13.390;2022-09-29T01:00:16;99548.91;;;5.96;100.00
56681;BME280;42558;52.388;13.390;2022-09-29T01:02:53;99549.21;;;5.93;100.00
56681;BME280;42558;52.388;13.390;2022-09-29T01:05:34;99554.73;;;5.90;100.00
56681;BME280;42558;52.388;13.390;2022-09-29T01:08:15;99556.17;;;5.91;100.00
56681;BME280;42558;52.388;13.390;2022-09-29T01:10:44;99557.64;;;5.86;100.00
56681;BME280;42558;52.388;13.390;2022-09-29T01:13:11;99558.30;;;5.83;100.00
56681;BME280;42558;52.388;13.390;2022-09-29T01:15:38;99561.28;;;5.83;100.00
56681;BME280;42558;52.388;13.390;2022-09-29T01:18:05;99569.19;;;5.75;100.00
56681;BME280;42558;52.388;13.390;2022-09-29T01:20:58;99567.20;;;5.70;100.00
56681;BME280;42558;52.388;13.390;2022-09-29T01:27:11;99573.48;;;5.46;100.00
56681;BME280;42558;52.388;13.390;2022-09-29T01:30:11;99581.05;;;5.39;100.00
56681;BME280;42558;52.388;13.390;2022-09-29T01:33:09;99580.92;;;5.42;100.00
56681;BME280;42558;52.388;13.390;2022-09-29T01:36:21;99585.63;;;5.42;100.00
56681;BME280;42558;52.388;13.390;2022-09-29T01:45:02;99583.73;;;5.44;100.00
56681;BME280;42558;52.388;13.390;2022-09-29T01:47:41;99581.83;;;5.45;100.00
56681;BME280;42558;52.388;13.390;2022-09-29T01:50:25;99581.34;;;5.47;100.00
56681;BME280;42558;52.388;13.390;2022-09-29T01:53:03;99585.89;;;5.48;100.00
56681;BME280;42558;52.388;13.390;2022-09-29T01:55:37;99588.54;;;5.50;100.00
56681;BME280;42558;52.388;13.390;2022-09-29T01:58:14;99590.23;;;5.47;100.00
56681;BME280;42558;52.388;13.390;2022-09-29T02:00:50;99599.80;;;5.35;100.00
56681;BME280;42558;52.388;13.390;2022-09-29T02:03:29;99599.11;;;5.35;100.00
56681;BME280;42558;52.388;13.390;2022-09-29T02:06:06;99601.59;;;5.37;100.00
56681;BME280;42558;52.388;13.390;2022-09-29T02:08:46;99601.85;;;5.43;100.00
56681;BME280;42558;52.388;13.390;2022-09-29T02:11:16;99603.45;;;5.45;100.00
56681;BME280;42558;52.388;13.390;2022-09-29T02:14:02;99603.63;;;5.35;100.00
56681;BME280;42558;52.388;13.390;2022-09-29T02:16:38;99604.50;;;5.34;100.00
56681;BME280;42558;52.388;13.390;2022-09-29T02:19:14;99608.79;;;5.19;100.00
56681;BME280;42558;52.388;13.390;2022-09-29T02:21:42;99611.46;;;5.23;100.00
56681;BME280;42558;52.388;13.390;2022-09-29T02:24:14;99616.73;;;5.26;100.00
56681;BME280;42558;52.388;13.390;2022-09-29T02:26:40;99617.17;;;5.20;100.00
56681;BME280;42558;52.388;13.390;2022-09-29T02:29:08;99618.09;;;5.12;100.00
56681;BME280;42558;52.388;13.390;2022-09-29T02:31:37;99622.25;;;5.02;100.00
56681;BME280;42558;52.388;13.390;2022-09-29T02:34:07;99622.34;;;4.97;100.00
56681;BME280;42558;52.388;13.390;2022-09-29T02:43:20;99615.09;;;5.01;100.00
56681;BME280;42558;52.388;13.390;2022-09-29T02:46:13;99619.54;;;5.16;100.00
56681;BME280;42558;52.388;13.390;2022-09-29T02:51:40;99616.55;;;5.36;100.00
56681;BME280;42558;52.388;13.390;2022-09-29T02:54:45;99612.25;;;5.40;100.00
56681;BME280;42558;52.388;13.390;2022-09-29T02:57:58;99615.98;;;5.44;100.00
56681;BME280;42558;52.388;13.390;2022-09-29T03:00:29;99615.73;;;5.50;100.00
56681;BME280;42558;52.388;13.390;2022-09-29T03:02:56;99619.36;;;5.48;100.00
56681;BME280;42558;52.388;13.390;2022-09-29T03:05:22;99618.52;;;5.50;100.00
56681;BME280;42558;52.388;13.390;2022-09-29T03:07:50;99622.67;;;5.49;100.00
56681;BME280;42558;52.388;13.390;2022-09-29T03:10:18;99619.89;;;5.49;100.00
56681;BME280;42558;52.388;13.390;2022-09-29T03:12:44;99615.73;;;5.50;100.00
56681;BME280;42558;52.388;13.390;2022-09-29T03:15:12;99613.11;;;5.49;100.00
56681;BME280;42558;52.388;13.390;2022-09-29T03:17:40;99614.83;;;5.49;100.00
56681;BME280;42558;52.388;13.390;2022-09-29T03:20:08;99616.71;;;5.47;100.00
56681;BME280;42558;52.388;13.390;2022-09-29T03:22:34;99616.61;;;5.50;100.00
56681;BME280;42558;52.388;13.390;2022-09-29T03:25:03;99615.05;;;5.52;100.00
56681;BME280;42558;52.388;13.390;2022-09-29T03:27:32;99620.63;;;5.51;100.00
56681;BME280;42558;52.388;13.390;2022-09-29T03:29:59;99621.89;;;5.54;100.00
56681;BME280;42558;52.388;13.390;2022-09-29T03:32:25;99625.69;;;5.51;100.00
56681;BME280;42558;52.388;13.390;2022-09-29T03:34:52;99624.48;;;5.53;100.00
56681;BME280;42558;52.388;13.390;2022-09-29T03:37:19;99629.62;;;5.58;100.00
56681;BME280;42558;52.388;13.390;2022-09-29T03:39:46;99628.06;;;5.58;100.00
56681;BME280;42558;52.388;13.390;2022-09-29T03:42:13;99630.34;;;5.59;100.00
56681;BME280;42558;52.388;13.390;2022-09-29T03:44:40;99633.35;;;5.63;100.00
56681;BME280;42558;52.388;13.390;2022-09-29T03:47:07;99638.60;;;5.62;100.00
56681;BME280;42558;52.388;13.390;2022-09-29T03:49:34;99641.10;;;5.57;100.00
56681;BME280;42558;52.388;13.390;2022-09-29T03:52:01;99637.63;;;5.47;100.00
56681;BME280;42558;52.388;13.390;2022-09-29T03:54:27;99641.30;;;5.47;100.00
56681;BME280;42558;52.388;13.390;2022-09-29T03:56:54;99644.48;;;5.50;100.00
56681;BME280;42558;52.388;13.390;2022-09-29T03:59:21;99644.34;;;5.52;100.00
56681;BME280;42558;52.388;13.390;2022-09-29T04:01:48;99642.81;;;5.55;100.00
56681;BME280;42558;52.388;13.390;2022-09-29T04:04:14;99643.86;;;5.54;100.00
56681;BME280;42558;52.388;13.390;2022-09-29T04:06:41;99646.23;;;5.50;100.00
56681;BME280;42558;52.388;13.390;2022-09-29T04:09:08;99647.68;;;5.43;100.00
56681;BME280;42558;52.388;13.390;2022-09-29T04:11:35;99648.48;;;5.38;100.00
56681;BME280;42558;52.388;13.390;2022-09-29T04:14:02;99650.74;;;5.38;100.00
56681;BME280;42558;52.388;13.390;2022-09-29T04:16:29;99650.19;;;5.36;100.00
56681;BME280;42558;52.388;13.390;2022-09-29T04:18:56;99654.28;;;5.41;100.00
56681;BME280;42558;52.388;13.390;2022-09-29T04:21:23;99653.95;;;5.42;100.00
56681;BME280;42558;52.388;13.390;2022-09-29T04:23:50;99655.41;;;5.47;100.00
56681;BME280;42558;52.388;13.390;2022-09-29T04:26:17;99654.10;;;5.41;100.00
56681;BME280;42558;52.388;13.390;2022-09-29T04:28:46;99653.71;;;5.38;100.00
56681;BME280;42558;52.388;13.390;2022-09-29T04:31:13;99656.17;;;5.40;100.00
56681;BME280;42558;52.388;13.390;2022-09-29T04:33:40;99657.40;;;5.41;100.00
56681;BME280;42558;52.388;13.390;2022-09-29T04:36:07;99658.27;;;5.40;100.00
56681;BME280;42558;52.388;13.390;2022-09-29T04:38:34;99662.13;;;5.42;100.00
56681;BME280;42558;52.388;13.390;2022-09-29T04:41:01;99662.42;;;5.49;100.00
56681;BME280;42558;52.388;13.390;2022-09-29T04:43:28;99664.04;;;5.52;100.00
56681;BME280;42558;52.388;13.390;2022-09-29T04:46:05;99659.00;;;5.54;100.00
56681;BME280;42558;52.388;13.390;2022-09-29T04:48:33;99660.21;;;5.52;100.00
56681;BME280;42558;52.388;13.390;2022-09-29T04:51:03;99660.48;;;5.58;100.00
56681;BME280;42558;52.388;13.390;2022-09-29T04:53:30;99663.30;;;5.49;100.00
56681;BME280;42558;52.388;13.390;2022-09-29T04:55:57;99667.17;;;5.52;100.00
56681;BME280;42558;52.388;13.390;2022-09-29T04:58:24;99668.16;;;5.58;100.00
56681;BME280;42558;52.388;13.390;2022-09-29T05:00:50;99671.25;;;5.67;100.00
56681;BME280;42558;52.388;13.390;2022-09-29T05:03:17;99670.70;;;5.65;100.00
56681;BME280;42558;52.388;13.390;2022-09-29T05:05:44;99674.17;;;5.53;100.00
56681;BME280;42558;52.388;13.390;2022-09-29T05:08:10;99675.98;;;5.57;100.00
56681;BME280;42558;52.388;13.390;2022-09-29T05:10:37;99679.06;;;5.65;100.00
56681;BME280;42558;52.388;13.390;2022-09-29T05:13:04;99682.08;;;5.68;100.00
56681;BME280;42558;52.388;13.390;2022-09-29T05:15:30;99683.36;;;5.71;100.00
56681;BME280;42558;52.388;13.390;2022-09-29T05:18:01;99686.85;;;5.72;100.00
56681;BME280;42558;52.388;13.390;2022-09-29T05:20:28;99688.09;;;5.73;100.00
56681;BME280;42558;52.388;13.390;2022-09-29T05:23:07;99693.89;;;5.76;100.00
56681;BME280;42558;52.388;13.390;2022-09-29T05:25:37;99690.36;;;5.73;100.00
56681;BME280;42558;52.388;13.390;2022-09-29T05:28:05;99691.92;;;5.73;100.00
56681;BME280;42558;52.388;13.390;2022-09-29T05:30:32;99695.30;;;5.77;100.00
56681;BME280;42558;52.388;13.390;2022-09-29T05:32:58;99696.70;;;5.78;100.00
56681;BME280;42558;52.388;13.390;2022-09-29T05:35:25;99696.31;;;5.74;100.00
56681;BME280;42558;52.388;13.390;2022-09-29T05:37:52;99697.70;;;5.74;100.00
56681;BME280;42558;52.388;13.390;2022-09-29T05:40:19;99698.67;;;5.81;100.00
56681;BME280;42558;52.388;13.390;2022-09-29T05:42:50;99701.55;;;5.65;100.00
56681;BME280;42558;52.388;13.390;2022-09-29T05:45:18;99702.09;;;5.55;100.00
56681;BME280;42558;52.388;13.390;2022-09-29T05:47:45;99699.33;;;5.55;100.00
56681;BME280;42558;52.388;13.390;2022-09-29T05:50:12;99700.20;;;5.57;100.00
56681;BME280;42558;52.388;13.390;2022-09-29T06:00:31;99703.86;;;5.67;100.00
56681;BME280;42558;52.388;13.390;2022-09-29T06:02:59;99707.94;;;5.60;100.00
56681;BME280;42558;52.388;13.390;2022-09-29T06:05:26;99708.70;;;5.64;100.00
56681;BME280;42558;52.388;13.390;2022-09-29T06:07:54;99709.93;;;5.65;100.00
56681;BME280;42558;52.388;13.390;2022-09-29T06:10:21;99711.55;;;5.68;100.00
56681;BME280;42558;52.388;13.390;2022-09-29T06:12:48;99711.73;;;5.79;100.00
56681;BME280;42558;52.388;13.390;2022-09-29T06:15:15;99716.60;;;5.79;100.00
56681;BME280;42558;52.388;13.390;2022-09-29T06:17:41;99717.95;;;5.64;100.00
56681;BME280;42558;52.388;13.390;2022-09-29T06:20:08;99723.27;;;5.70;100.00
56681;BME280;42558;52.388;13.390;2022-09-29T06:22:35;99720.86;;;5.72;100.00
56681;BME280;42558;52.388;13.390;2022-09-29T06:25:02;99723.98;;;5.71;100.00
56681;BME280;42558;52.388;13.390;2022-09-29T06:27:29;99725.08;;;5.74;100.00
56681;BME280;42558;52.388;13.390;2022-09-29T06:29:55;99728.33;;;5.82;100.00
56681;BME280;42558;52.388;13.390;2022-09-29T06:32:22;99730.48;;;5.85;100.00
56681;BME280;42558;52.388;13.390;2022-09-29T06:34:49;99732.35;;;5.92;100.00
56681;BME280;42558;52.388;13.390;2022-09-29T06:37:34;99729.15;;;5.88;100.00
56681;BME280;42558;52.388;13.390;2022-09-29T06:40:04;99725.70;;;5.81;100.00
56681;BME280;42558;52.388;13.390;2022-09-29T06:42:36;99728.58;;;5.95;100.00
56681;BME280;42558;52.388;13.390;2022-09-29T06:45:04;99725.83;;;5.98;100.00
56681;BME280;42558;52.388;13.390;2022-09-29T06:47:31;99726.46;;;6.06;100.00
56681;BME280;42558;52.388;13.390;2022-09-29T06:49:58;99728.90;;;6.16;100.00
56681;BME280;42558;52.388;13.390;2022-09-29T06:52:43;99724.81;;;6.23;100.00
56681;BME280;42558;52.388;13.390;2022-09-29T06:55:24;99726.14;;;6.31;100.00
56681;BME280;42558;52.388;13.390;2022-09-29T06:57:50;99730.39;;;6.24;100.00
56681;BME280;42558;52.388;13.390;2022-09-29T07:00:17;99731.27;;;6.11;100.00
56681;BME280;42558;52.388;13.390;2022-09-29T07:02:45;99733.98;;;6.30;100.00
56681;BME280;42558;52.388;13.390;2022-09-29T07:05:12;99734.85;;;6.42;100.00
56681;BME280;42558;52.388;13.390;2022-09-29T07:07:39;99735.45;;;6.48;100.00
56681;BME280;42558;52.388;13.390;2022-09-29T07:10:08;99733.39;;;6.37;100.00
56681;BME280;42558;52.388;13.390;2022-09-29T07:12:34;99734.23;;;6.37;100.00
56681;BME280;42558;52.388;13.390;2022-09-29T07:15:01;99739.16;;;6.39;100.00
56681;BME280;42558;52.388;13.390;2022-09-29T07:17:28;99740.88;;;6.49;100.00
56681;BME280;42558;52.388;13.390;2022-09-29T07:19:55;99741.55;;;6.60;100.00
56681;BME280;42558;52.388;13.390;2022-09-29T07:22:22;99744.83;;;6.70;100.00
56681;BME280;42558;52.388;13.390;2022-09-29T07:24:49;99745.13;;;6.81;100.00
56681;BME280;42558;52.388;13.390;2022-09-29T07:27:16;99746.39;;;6.84;100.00
56681;BME280;42558;52.388;13.390;2022-09-29T07:29:50;99749.19;;;6.84;100.00
56681;BME280;42558;52.388;13.390;2022-09-29T07:32:29;99755.87;;;6.88;100.00
56681;BME280;42558;52.388;13.390;2022-09-29T07:34:58;99757.01;;;6.95;100.00
56681;BME280;42558;52.388;13.390;2022-09-29T07:37:28;99758.04;;;6.78;100.00
56681;BME280;42558;52.388;13.390;2022-09-29T07:39:56;99757.98;;;6.88;100.00
56681;BME280;42558;52.388;13.390;2022-09-29T07:42:23;99761.74;;;6.97;100.00
56681;BME280;42558;52.388;13.390;2022-09-29T07:44:50;99765.96;;;6.98;100.00
56681;BME280;42558;52.388;13.390;2022-09-29T07:47:18;99768.13;;;7.21;100.00
56681;BME280;42558;52.388;13.390;2022-09-29T07:49:45;99768.88;;;7.24;100.00
56681;BME280;42558;52.388;13.390;2022-09-29T07:52:13;99770.16;;;7.14;100.00
56681;BME280;42558;52.388;13.390;2022-09-29T07:54:40;99773.09;;;7.26;100.00
56681;BME280;42558;52.388;13.390;2022-09-29T07:57:07;99773.23;;;7.22;100.00
56681;BME280;42558;52.388;13.390;2022-09-29T07:59:33;99775.52;;;7.42;100.00
56681;BME280;42558;52.388;13.390;2022-09-29T08:02:00;99779.34;;;7.39;100.00
56681;BME280;42558;52.388;13.390;2022-09-29T08:04:28;99776.94;;;7.26;100.00
56681;BME280;42558;52.388;13.390;2022-09-29T08:06:55;99779.14;;;7.52;100.00
56681;BME280;42558;52.388;13.390;2022-09-29T08:09:22;99782.15;;;7.57;100.00
56681;BME280;42558;52.388;13.390;2022-09-29T08:12:01;99785.75;;;7.67;100.00
56681;BME280;42558;52.388;13.390;2022-09-29T08:14:34;99788.45;;;7.75;100.00
56681;BME280;42558;52.388;13.390;2022-09-29T08:17:01;99789.25;;;7.86;100.00
56681;BME280;42558;52.388;13.390;2022-09-29T08:19:27;99784.08;;;7.96;100.00
56681;BME280;42558;52.388;13.390;2022-09-29T08:21:54;99785.23;;;8.09;100.00
56681;BME280;42558;52.388;13.390;2022-09-29T08:24:21;99785.52;;;8.22;100.00
56681;BME280;42558;52.388;13.390;2022-09-29T08:26:47;99786.33;;;8.37;100.00
56681;BME280;42558;52.388;13.390;2022-09-29T08:29:14;99784.14;;;8.49;100.00
56681;BME280;42558;52.388;13.390;2022-09-29T08:31:44;99784.56;;;8.58;100.00
56681;BME280;42558;52.388;13.390;2022-09-29T08:34:12;99790.92;;;8.69;100.00
56681;BME280;42558;52.388;13.390;2022-09-29T08:36:40;99791.03;;;8.57;100.00
56681;BME280;42558;52.388;13.390;2022-09-29T08:39:09;99794.57;;;8.62;100.00
56681;BME280;42558;52.388;13.390;2022-09-29T08:42:04;99800.41;;;8.75;100.00
56681;BME280;42558;52.388;13.390;2022-09-29T08:44:56;99802.94;;;8.84;100.00
56681;BME280;42558;52.388;13.390;2022-09-29T08:47:45;99803.15;;;8.94;100.00
56681;BME280;42558;52.388;13.390;2022-09-29T08:50:29;99805.30;;;9.05;100.00
56681;BME280;42558;52.388;13.390;2022-09-29T08:53:04;99806.73;;;9.13;100.00
56681;BME280;42558;52.388;13.390;2022-09-29T08:56:14;99810.42;;;9.14;100.00
56681;BME280;42558;52.388;13.390;2022-09-29T08:58:41;99813.41;;;9.16;100.00
56681;BME280;42558;52.388;13.390;2022-09-29T09:07:26;99816.57;;;9.16;100.00
56681;BME280;42558;52.388;13.390;2022-09-29T09:15:47;99821.95;;;9.60;100.00
56681;BME280;42558;52.388;13.390;2022-09-29T09:21:19;99824.27;;;9.82;100.00
56681;BME280;42558;52.388;13.390;2022-09-29T09:23:57;99827.29;;;9.89;100.00
56681;BME280;42558;52.388;13.390;2022-09-29T09:26:40;99827.98;;;10.00;100.00
56681;BME280;42558;52.388;13.390;2022-09-29T09:32:15;99828.73;;;10.26;100.00
56681;BME280;42558;52.388;13.390;2022-09-29T09:35:18;99832.42;;;10.38;100.00
56681;BME280;42558;52.388;13.390;2022-09-29T09:37:52;99829.42;;;10.55;100.00
56681;BME280;42558;52.388;13.390;2022-09-29T09:40:26;99831.48;;;10.82;99.25
56681;BME280;42558;52.388;13.390;2022-09-29T09:49:24;99836.73;;;10.88;97.73
56681;BME280;42558;52.388;13.390;2022-09-29T09:52:07;99841.81;;;10.98;96.91
56681;BME280;42558;52.388;13.390;2022-09-29T09:54:45;99845.30;;;11.05;96.56
56681;BME280;42558;52.388;13.390;2022-09-29T10:02:49;99847.88;;;10.50;99.62
56681;BME280;42558;52.388;13.390;2022-09-29T10:05:36;99848.36;;;10.84;99.60
56681;BME280;42558;52.388;13.390;2022-09-29T10:08:10;99850.92;;;11.05;97.54
56681;BME280;42558;52.388;13.390;2022-09-29T10:10:41;99856.74;;;11.05;96.44
56681;BME280;42558;52.388;13.390;2022-09-29T10:13:27;99858.34;;;10.97;95.86
56681;BME280;42558;52.388;13.390;2022-09-29T10:16:10;99857.96;;;11.07;95.72
56681;BME280;42558;52.388;13.390;2022-09-29T10:18:48;99860.47;;;11.43;94.79
56681;BME280;42558;52.388;13.390;2022-09-29T10:23:58;99857.33;;;12.50;92.41
56681;BME280;42558;52.388;13.390;2022-09-29T10:26:34;99850.30;;;12.85;88.05
56681;BME280;42558;52.388;13.390;2022-09-29T10:29:44;99856.27;;;12.30;87.01
56681;BME280;42558;52.388;13.390;2022-09-29T10:32:26;99853.70;;;12.42;86.43
56681;BME280;42558;52.388;13.390;2022-09-29T10:38:24;99864.95;;;12.21;87.30
56681;BME280;42558;52.388;13.390;2022-09-29T10:41:04;99862.45;;;12.48;85.94
56681;BME280;42558;52.388;13.390;2022-09-29T10:43:39;99867.67;;;12.35;84.11
56681;BME280;42558;52.388;13.390;2022-09-29T10:46:35;99867.19;;;12.08;82.61
56681;BME280;42558;52.388;13.390;2022-09-29T10:49:26;99869.23;;;12.16;85.29
56681;BME280;42558;52.388;13.390;2022-09-29T10:52:08;99863.94;;;12.60;83.51
56681;BME280;42558;52.388;13.390;2022-09-29T10:55:18;99863.61;;;12.75;82.86
56681;BME280;42558;52.388;13.390;2022-09-29T10:57:46;99861.46;;;12.60;79.66
56681;BME280;42558;52.388;13.390;2022-09-29T11:00:37;99864.42;;;12.45;82.68
56681;BME280;42558;52.388;13.390;2022-09-29T11:03:37;99865.35;;;12.59;83.41
56681;BME280;42558;52.388;13.390;2022-09-29T11:06:10;99863.05;;;12.59;82.83
56681;BME280;42558;52.388;13.390;2022-09-29T11:09:06;99866.84;;;12.87;80.91
56681;BME280;42558;52.388;13.390;2022-09-29T11:11:54;99877.65;;;12.21;80.54
56681;BME280;42558;52.388;13.390;2022-09-29T11:17:01;99883.75;;;11.70;81.33
56681;BME280;42558;52.388;13.390;2022-09-29T11:19:29;99884.81;;;12.30;81.86
56681;BME280;42558;52.388;13.390;2022-09-29T11:22:25;99878.09;;;12.55;79.57
56681;BME280;42558;52.388;13.390;2022-09-29T11:43:41;99876.20;;;12.68;77.91
56681;BME280;42558;52.388;13.390;2022-09-29T11:52:55;99885.58;;;12.65;77.27
56681;BME280;42558;52.388;13.390;2022-09-29T11:56:13;99886.90;;;12.56;75.30
56681;BME280;42558;52.388;13.390;2022-09-29T12:09:44;99897.14;;;12.32;76.38
56681;BME280;42558;52.388;13.390;2022-09-29T12:12:22;99897.89;;;12.26;79.49
56681;BME280;42558;52.388;13.390;2022-09-29T12:18:24;99894.33;;;12.54;78.77
56681;BME280;42558;52.388;13.390;2022-09-29T12:20:53;99892.25;;;12.26;77.53
56681;BME280;42558;52.388;13.390;2022-09-29T12:23:27;99892.02;;;12.09;77.05
56681;BME280;42558;52.388;13.390;2022-09-29T12:26:10;99891.29;;;12.10;78.22
56681;BME280;42558;52.388;13.390;2022-09-29T12:31:43;99884.74;;;12.79;75.82
56681;BME280;42558;52.388;13.390;2022-09-29T12:34:36;99881.21;;;12.79;73.77
56681;BME280;42558;52.388;13.390;2022-09-29T12:37:31;99879.17;;;12.71;73.04
56681;BME280;42558;52.388;13.390;2022-09-29T12:51:50;99881.55;;;12.41;71.44
56681;BME280;42558;52.388;13.390;2022-09-29T12:54:27;99883.96;;;12.68;73.46
56681;BME280;42558;52.388;13.390;2022-09-29T12:57:21;99876.85;;;12.93;71.53
56681;BME280;42558;52.388;13.390;2022-09-29T12:59:59;99877.44;;;13.04;69.85
56681;BME280;42558;52.388;13.390;2022-09-29T13:06:00;99878.89;;;13.18;68.31
56681;BME280;42558;52.388;13.390;2022-09-29T13:12:03;99881.95;;;13.29;68.89
56681;BME280;42558;52.388;13.390;2022-09-29T13:18:18;99882.77;;;13.17;67.07
56681;BME280;42558;52.388;13.390;2022-09-29T13:24:18;99886.29;;;13.01;67.07
56681;BME280;42558;52.388;13.390;2022-09-29T13:27:28;99895.52;;;12.95;69.84
56681;BME280;42558;52.388;13.390;2022-09-29T13:30:17;99894.39;;;12.86;68.25
56681;BME280;42558;52.388;13.390;2022-09-29T13:33:01;99899.34;;;12.83;70.11
56681;BME280;42558;52.388;13.390;2022-09-29T13:35:44;99901.69;;;12.79;69.43
56681;BME280;42558;52.388;13.390;2022-09-29T13:38:33;99903.14;;;12.74;70.83
56681;BME280;42558;52.388;13.390;2022-09-29T13:41:37;99907.00;;;12.56;70.91
56681;BME280;42558;52.388;13.390;2022-09-29T13:46:43;99914.05;;;12.34;74.08
56681;BME280;42558;52.388;13.390;2022-09-29T13:54:41;99919.53;;;12.30;74.07
56681;BME280;42558;52.388;13.390;2022-09-29T13:59:44;99923.25;;;12.28;75.79
56681;BME280;42558;52.388;13.390;2022-09-29T14:02:40;99922.77;;;12.21;75.53
56681;BME280;42558;52.388;13.390;2022-09-29T14:10:42;99929.61;;;12.25;75.73
56681;BME280;42558;52.388;13.390;2022-09-29T14:21:51;99938.84;;;12.42;81.14
56681;BME280;42558;52.388;13.390;2022-09-29T14:27:27;99945.54;;;12.42;84.85
56681;BME280;42558;52.388;13.390;2022-09-29T14:32:53;99944.66;;;12.45;84.22
56681;BME280;42558;52.388;13.390;2022-09-29T14:35:32;99944.08;;;12.48;83.63
56681;BME280;42558;52.388;13.390;2022-09-29T14:43:40;99945.48;;;12.49;74.94
56681;BME280;42558;52.388;13.390;2022-09-29T14:53:32;99954.19;;;12.41;73.47
56681;BME280;42558;52.388;13.390;2022-09-29T15:02:32;99959.17;;;12.33;74.73
56681;BME280;42558;52.388;13.390;2022-09-29T15:07:58;99963.98;;;12.25;74.60
56681;BME280;42558;52.388;13.390;2022-09-29T15:10:38;99962.77;;;12.20;74.16
56681;BME280;42558;52.388;13.390;2022-09-29T15:13:24;99964.88;;;12.24;75.38
56681;BME280;42558;52.388;13.390;2022-09-29T15:16:03;99968.54;;;12.31;77.90
56681;BME280;42558;52.388;13.390;2022-09-29T15:19:03;99970.48;;;12.28;76.78
56681;BME280;42558;52.388;13.390;2022-09-29T15:24:15;99971.79;;;12.18;73.83
56681;BME280;42558;52.388;13.390;2022-09-29T15:26:47;99978.48;;;12.18;75.29
56681;BME280;42558;52.388;13.390;2022-09-29T15:29:17;99981.13;;;12.16;75.27
56681;BME280;42558;52.388;13.390;2022-09-29T15:31:46;99982.36;;;12.17;75.16
56681;BME280;42558;52.388;13.390;2022-09-29T15:34:22;99982.90;;;12.14;75.25
56681;BME280;42558;52.388;13.390;2022-09-29T15:36:54;99985.52;;;12.16;76.79
56681;BME280;42558;52.388;13.390;2022-09-29T15:42:04;99989.75;;;12.18;83.04
56681;BME280;42558;52.388;13.390;2022-09-29T15:47:28;99992.13;;;12.03;78.89
56681;BME280;42558;52.388;13.390;2022-09-29T15:50:15;99993.54;;;12.00;79.32
56681;BME280;42558;52.388;13.390;2022-09-29T15:52:43;99992.30;;;12.05;81.93
56681;BME280;42558;52.388;13.390;2022-09-29T15:55:15;99993.52;;;12.07;83.05
56681;BME280;42558;52.388;13.390;2022-09-29T15:57:50;99995.96;;;12.09;84.72
56681;BME280;42558;52.388;13.390;2022-09-29T16:08:57;99994.70;;;11.67;84.89
56681;BME280;42558;52.388;13.390;2022-09-29T16:11:33;99997.02;;;11.54;84.90
56681;BME280;42558;52.388;13.390;2022-09-29T16:14:16;99994.40;;;11.44;85.62
56681;BME280;42558;52.388;13.390;2022-09-29T16:16:48;99997.60;;;11.34;86.45
56681;BME280;42558;52.388;13.390;2022-09-29T16:19:28;100000.95;;;11.28;87.45
56681;BME280;42558;52.388;13.390;2022-09-29T16:22:03;100002.55;;;11.24;88.18
56681;BME280;42558;52.388;13.390;2022-09-29T16:24:50;100005.54;;;11.14;83.55
56681;BME280;42558;52.388;13.390;2022-09-29T16:27:43;100007.12;;;11.11;85.99
56681;BME280;42558;52.388;13.390;2022-09-29T16:30:30;100011.36;;;10.94;87.99
56681;BME280;42558;52.388;13.390;2022-09-29T16:33:21;100015.41;;;10.86;88.48
56681;BME280;42558;52.388;13.390;2022-09-29T16:36:00;100024.89;;;10.72;88.73
56681;BME280;42558;52.388;13.390;2022-09-29T16:38:37;100028.92;;;10.67;89.48
56681;BME280;42558;52.388;13.390;2022-09-29T16:41:26;100031.20;;;10.64;89.61
56681;BME280;42558;52.388;13.390;2022-09-29T16:44:13;100040.30;;;10.44;89.57
56681;BME280;42558;52.388;13.390;2022-09-29T16:49:34;100046.08;;;10.31;91.70
56681;BME280;42558;52.388;13.390;2022-09-29T16:52:14;100047.81;;;10.25;91.94
56681;BME280;42558;52.388;13.390;2022-09-29T16:54:46;100052.14;;;10.21;92.52